createdAt,value
2023-04-03T00:03:00.944Z,4.72
2023-04-03T00:06:04.560Z,4.64
2023-04-03T00:09:08.641Z,4.69
2023-04-03T00:12:13.921Z,4.74
2023-04-03T00:15:16.130Z,4.62
2023-04-03T00:18:17.644Z,4.73
2023-04-03T00:21:19.762Z,4.73
2023-04-03T00:24:24.336Z,4.66
2023-04-03T00:27:26.922Z,4.71
2023-04-03T00:30:32.027Z,4.64
2023-04-03T00:33:33.743Z,4.42
2023-04-03T00:36:35.407Z,4.42
2023-04-03T00:39:37.170Z,4.35
2023-04-03T00:42:43.116Z,4.57
2023-04-03T00:45:47.511Z,4.60
2023-04-03T00:48:55.074Z,4.62
2023-04-03T00:51:59.177Z,4.56
2023-04-03T00:55:16.064Z,4.71
2023-04-03T00:58:21.862Z,4.70
2023-04-03T01:01:29.399Z,4.76
2023-04-03T01:04:37.780Z,4.75
2023-04-03T01:07:42.769Z,4.65
2023-04-03T01:10:44.410Z,4.63
2023-04-03T01:13:46.147Z,4.71
2023-04-03T01:16:54.884Z,4.69
2023-04-03T01:20:32.055Z,4.70
2023-04-03T01:27:18.263Z,4.68
2023-04-03T01:30:24.918Z,4.54
2023-04-03T01:33:39.812Z,4.59
2023-04-03T01:36:41.926Z,4.49
2023-04-03T01:39:46.578Z,4.60
2023-04-03T01:42:54.400Z,4.55
2023-04-03T01:45:56.114Z,4.59
2023-04-03T01:49:00.133Z,4.55
2023-04-03T01:52:18.159Z,4.43
2023-04-03T01:55:46.163Z,4.37
2023-04-03T01:58:53.924Z,4.38
2023-04-03T02:01:56.089Z,4.31
2023-04-03T02:05:00.493Z,4.26
2023-04-03T02:08:02.811Z,4.37
2023-04-03T02:11:06.643Z,4.36
2023-04-03T02:14:10.958Z,4.32
2023-04-03T02:17:12.609Z,4.34
2023-04-03T02:20:14.159Z,4.35
2023-04-03T02:23:18.797Z,4.28
2023-04-03T02:26:20.904Z,4.26
2023-04-03T02:29:22.545Z,4.15
2023-04-03T02:32:27.929Z,4.09
2023-04-03T02:35:33.536Z,4.11
2023-04-03T02:38:36.031Z,4.14
2023-04-03T02:41:37.574Z,4.13
2023-04-03T02:44:45.541Z,4.08
2023-04-03T02:47:47.155Z,4.17
2023-04-03T02:50:49.148Z,4.16
2023-04-03T02:53:51.522Z,4.03
2023-04-03T02:56:57.847Z,4.03
2023-04-03T03:00:05.341Z,4.03
2023-04-03T03:03:08.093Z,4.09
2023-04-03T03:06:17.872Z,4.05
2023-04-03T03:12:38.196Z,3.99
2023-04-03T03:15:39.693Z,3.84
2023-04-03T03:18:43.495Z,3.84
2023-04-03T03:21:46.089Z,3.91
2023-04-03T03:24:47.627Z,3.99
2023-04-03T03:27:52.093Z,3.94
2023-04-03T03:34:14.916Z,3.93
2023-04-03T03:37:16.459Z,3.95
2023-04-03T03:40:18.943Z,3.95
2023-04-03T03:43:35.734Z,3.82
2023-04-03T03:46:41.517Z,3.76
2023-04-03T03:49:43.079Z,3.70
2023-04-03T03:52:44.730Z,3.70
2023-04-03T03:55:47.083Z,3.63
2023-04-03T03:58:52.640Z,3.56
2023-04-03T04:01:54.206Z,3.61
2023-04-03T04:04:55.861Z,3.67
2023-04-03T04:08:06.588Z,3.66
2023-04-03T04:11:09.238Z,3.65
2023-04-03T04:14:13.501Z,3.61
2023-04-03T04:17:17.962Z,3.57
2023-04-03T04:20:19.849Z,3.51
2023-04-03T04:26:41.406Z,3.61
2023-04-03T04:29:46.025Z,3.55
2023-04-03T04:32:54.016Z,3.60
2023-04-03T04:35:59.298Z,3.55
2023-04-03T04:39:00.943Z,3.37
2023-04-03T04:42:03.535Z,3.21
2023-04-03T04:45:08.391Z,2.99
2023-04-03T04:48:11.402Z,2.87
2023-04-03T04:51:13.287Z,2.92
2023-04-03T04:54:18.210Z,3.01
2023-04-03T04:57:30.190Z,2.89
2023-04-03T05:00:36.181Z,2.76
2023-04-03T05:03:44.137Z,2.77
2023-04-03T05:06:46.231Z,2.75
2023-04-03T05:09:52.141Z,2.81
2023-04-03T05:12:53.689Z,2.80
2023-04-03T05:16:07.847Z,2.88
2023-04-03T05:19:09.692Z,2.94
2023-04-03T05:22:12.053Z,2.95
2023-04-03T05:25:13.816Z,2.92
2023-04-03T05:28:18.640Z,2.85
2023-04-03T05:31:20.453Z,2.76
2023-04-03T05:34:24.150Z,2.80
2023-04-03T05:37:29.137Z,2.91
2023-04-03T05:40:39.134Z,3.06
2023-04-03T05:47:09.304Z,3.22
2023-04-03T05:50:14.014Z,3.29
2023-04-03T05:56:41.156Z,3.42
2023-04-03T05:59:47.726Z,3.52
2023-04-03T06:02:50.058Z,3.60
2023-04-03T06:05:56.469Z,3.65
2023-04-03T06:09:11.673Z,3.70
2023-04-03T06:12:20.546Z,3.71
2023-04-03T06:15:34.744Z,3.64
2023-04-03T06:18:36.253Z,3.75
2023-04-03T06:21:37.888Z,3.73
2023-04-03T06:24:40.489Z,3.72
2023-04-03T06:27:42.158Z,3.73
2023-04-03T06:30:43.976Z,3.73
2023-04-03T06:33:51.806Z,3.75
2023-04-03T06:36:55.150Z,3.82
2023-04-03T06:40:04.041Z,3.92
2023-04-03T06:43:06.142Z,3.94
2023-04-03T06:46:16.609Z,3.97
2023-04-03T06:52:33.802Z,4.14
2023-04-03T06:55:35.939Z,4.17
2023-04-03T06:58:37.761Z,4.22
2023-04-03T07:01:39.480Z,4.31
2023-04-03T07:04:52.849Z,4.30
2023-04-03T07:07:55.291Z,4.26
2023-04-03T07:10:57.146Z,4.38
2023-04-03T07:13:58.762Z,4.61
2023-04-03T07:17:00.373Z,4.73
2023-04-03T07:20:02.936Z,4.83
2023-04-03T07:23:06.889Z,4.92
2023-04-03T07:26:12.273Z,5.03
2023-04-03T07:29:23.235Z,5.17
2023-04-03T07:32:31.951Z,5.24
2023-04-03T07:35:33.512Z,5.53
2023-04-03T07:38:37.056Z,5.80
2023-04-03T07:41:38.655Z,5.80
2023-04-03T07:44:40.158Z,5.98
2023-04-03T07:47:49.009Z,6.04
2023-04-03T07:50:52.887Z,6.11
2023-04-03T07:54:04.574Z,6.21
2023-04-03T07:57:08.434Z,6.51
2023-04-03T08:00:12.818Z,6.66
2023-04-03T08:03:22.634Z,6.80
2023-04-03T08:06:37.511Z,6.47
2023-04-03T08:09:48.260Z,6.43
2023-04-03T08:12:52.835Z,6.89
2023-04-03T08:15:54.468Z,6.84
2023-04-03T08:18:58.867Z,7.11
2023-04-03T08:22:03.801Z,6.80
2023-04-03T08:25:06.172Z,7.03
2023-04-03T08:28:16.407Z,7.17
2023-04-03T08:31:21.297Z,7.00
2023-04-03T08:34:24.753Z,6.90
2023-04-03T08:37:26.459Z,6.51
2023-04-03T08:44:17.296Z,6.09
2023-04-03T08:47:57.449Z,6.17
2023-04-03T08:51:03.947Z,6.54
2023-04-03T08:54:16.005Z,6.70
2023-04-03T08:57:39.314Z,6.51
2023-04-03T09:01:04.963Z,6.42
2023-04-03T09:04:14.053Z,6.29
2023-04-03T09:07:39.952Z,7.30
2023-04-03T09:10:44.401Z,7.71
2023-04-03T09:14:11.049Z,8.15
2023-04-03T09:17:40.939Z,7.34
2023-04-03T09:21:12.806Z,7.29
2023-04-03T09:24:21.270Z,7.33
2023-04-03T09:27:24.393Z,7.11
2023-04-03T09:30:28.499Z,7.37
2023-04-03T09:33:31.383Z,7.12
2023-04-03T09:36:54.332Z,7.30
2023-04-03T09:39:57.008Z,7.65
2023-04-03T09:43:25.408Z,7.99
2023-04-03T09:46:33.984Z,7.64
2023-04-03T09:49:35.646Z,8.30
2023-04-03T09:52:38.774Z,8.05
2023-04-03T09:55:45.563Z,7.64
2023-04-03T09:59:08.655Z,7.50
2023-04-03T10:02:35.130Z,8.11
2023-04-03T10:05:48.332Z,7.99
2023-04-03T10:09:04.242Z,7.93
2023-04-03T10:12:11.377Z,8.00
2023-04-03T10:15:14.925Z,7.98
2023-04-03T10:18:41.365Z,7.98
2023-04-03T10:21:54.547Z,8.26
2023-04-03T10:25:09.949Z,8.63
2023-04-03T10:28:36.219Z,8.84
2023-04-03T10:32:21.614Z,8.51
2023-04-03T10:35:45.234Z,9.34
2023-04-03T10:39:05.561Z,9.65
2023-04-03T10:42:21.716Z,9.51
2023-04-03T10:46:08.173Z,8.99
2023-04-03T10:49:50.071Z,8.91
2023-04-03T10:53:09.161Z,9.24
2023-04-03T10:56:34.574Z,9.18
2023-04-03T10:59:59.282Z,9.23
2023-04-03T11:03:07.048Z,8.76
2023-04-03T11:06:15.635Z,8.71
2023-04-03T11:09:23.533Z,8.84
2023-04-03T11:12:31.424Z,8.76
2023-04-03T11:15:44.583Z,9.05
2023-04-03T11:18:53.492Z,9.51
2023-04-03T11:22:01.985Z,10.27
2023-04-03T11:25:25.064Z,9.80
2023-04-03T11:28:27.393Z,9.36
2023-04-03T11:31:54.947Z,8.95
2023-04-03T11:35:00.207Z,8.71
2023-04-03T11:38:07.400Z,8.64
2023-04-03T11:41:13.626Z,9.01
2023-04-03T11:44:38.747Z,8.84
2023-04-03T11:47:53.957Z,8.62
2023-04-03T11:50:59.006Z,8.45
2023-04-03T11:54:44.541Z,8.41
2023-04-03T11:58:12.808Z,8.54
2023-04-03T12:01:34.142Z,9.01
2023-04-03T12:04:36.775Z,8.96
2023-04-03T12:07:40.970Z,8.88
2023-04-03T12:10:42.496Z,8.86
2023-04-03T12:13:59.362Z,8.55
2023-04-03T12:17:01.116Z,8.89
2023-04-03T12:20:03.201Z,8.81
2023-04-03T12:23:25.825Z,8.38
2023-04-03T12:26:58.098Z,8.33
2023-04-03T12:30:05.980Z,8.56
2023-04-03T12:33:35.803Z,8.60
2023-04-03T12:37:05.776Z,8.43
2023-04-03T12:44:38.190Z,9.40
2023-04-03T12:47:44.521Z,10.34
2023-04-03T12:50:54.652Z,9.48
2023-04-03T12:54:33.902Z,9.16
2023-04-03T12:57:36.290Z,9.17
2023-04-03T13:00:44.062Z,8.66
2023-04-03T13:03:48.297Z,8.80
2023-04-03T13:06:59.806Z,8.70
2023-04-03T13:10:14.255Z,8.65
2023-04-03T13:13:26.227Z,8.72
2023-04-03T13:16:27.997Z,8.33
2023-04-03T13:19:37.280Z,8.36
2023-04-03T13:23:13.988Z,8.52
2023-04-03T13:26:20.661Z,8.60
2023-04-03T13:29:30.870Z,8.66
2023-04-03T13:32:33.536Z,8.81
2023-04-03T13:35:43.036Z,9.18
2023-04-03T13:38:58.342Z,9.25
2023-04-03T13:42:16.258Z,8.97
2023-04-03T13:45:28.828Z,8.51
2023-04-03T13:48:56.043Z,8.60
2023-04-03T13:52:07.454Z,8.59
2023-04-03T13:55:26.553Z,8.56
2023-04-03T13:58:36.759Z,8.65
2023-04-03T14:01:49.497Z,8.44
2023-04-03T14:05:04.928Z,8.40
2023-04-03T14:08:08.218Z,8.35
2023-04-03T14:11:19.225Z,8.53
2023-04-03T14:14:24.385Z,8.47
2023-04-03T14:17:29.672Z,8.44
2023-04-03T14:20:33.446Z,8.40
2023-04-03T14:23:38.197Z,8.21
2023-04-03T14:30:00.368Z,7.91
2023-04-03T14:33:02.073Z,7.89
2023-04-03T14:36:12.762Z,7.94
2023-04-03T14:39:23.837Z,7.61
2023-04-03T14:42:35.243Z,7.51
2023-04-03T14:48:52.312Z,7.44
2023-04-03T14:51:53.943Z,7.54
2023-04-03T14:54:56.094Z,7.72
2023-04-03T14:57:57.845Z,7.57
2023-04-03T15:01:04.492Z,7.99
2023-04-03T15:04:31.610Z,7.96
2023-04-03T15:07:58.884Z,8.08
2023-04-03T15:11:01.859Z,7.95
2023-04-03T15:14:04.818Z,7.77
2023-04-03T15:17:16.531Z,7.87
2023-04-03T15:20:25.039Z,7.82
2023-04-03T15:23:27.421Z,7.59
2023-04-03T15:26:31.298Z,7.44
2023-04-03T15:32:48.817Z,7.29
2023-04-03T15:35:55.812Z,7.29
2023-04-03T15:38:57.702Z,7.37
2023-04-03T15:42:09.389Z,7.69
2023-04-03T15:45:13.269Z,8.12
2023-04-03T15:51:32.622Z,8.58
2023-04-03T15:54:36.964Z,8.30
2023-04-03T16:00:42.387Z,7.66
2023-04-03T16:03:48.254Z,7.51
2023-04-03T16:06:50.750Z,7.31
2023-04-03T16:09:55.522Z,7.59
2023-04-03T16:12:57.064Z,8.62
2023-04-03T16:15:58.623Z,8.93
2023-04-03T16:19:00.306Z,9.13
2023-04-03T16:22:02.645Z,9.61
2023-04-03T16:25:08.588Z,9.50
2023-04-03T16:28:10.153Z,8.99
2023-04-03T16:31:17.914Z,8.57
2023-04-03T16:34:21.421Z,8.25
2023-04-03T16:37:22.885Z,7.98
2023-04-03T16:40:24.386Z,7.78
2023-04-03T16:43:27.276Z,7.54
2023-04-03T16:46:28.965Z,7.47
2023-04-03T16:49:35.762Z,7.13
2023-04-03T16:52:40.069Z,7.07
2023-04-03T16:55:44.798Z,7.01
2023-04-03T16:58:46.489Z,6.80
2023-04-03T17:01:48.161Z,6.93
2023-04-03T17:04:50.876Z,6.97
2023-04-03T17:07:53.334Z,7.29
2023-04-03T17:10:55.954Z,7.25
2023-04-03T17:14:00.436Z,7.10
2023-04-03T17:17:03.144Z,6.88
2023-04-03T17:20:07.485Z,6.90
2023-04-03T17:23:15.485Z,6.69
2023-04-03T17:26:21.890Z,6.67
2023-04-03T17:29:23.370Z,6.61
2023-04-03T17:32:26.238Z,6.44
2023-04-03T17:35:35.191Z,6.31
2023-04-03T17:38:39.853Z,6.16
2023-04-03T17:41:42.164Z,6.01
2023-04-03T17:44:43.784Z,5.99
2023-04-03T17:47:46.556Z,6.00
2023-04-03T17:50:56.262Z,5.93
2023-04-03T17:53:57.838Z,5.89
2023-04-03T17:57:01.562Z,5.84
2023-04-03T18:00:04.667Z,5.70
2023-04-03T18:03:13.780Z,5.73
2023-04-03T18:06:18.049Z,5.71
2023-04-03T18:09:27.049Z,5.73
2023-04-03T18:12:30.078Z,5.70
2023-04-03T18:15:31.636Z,5.58
2023-04-03T18:18:33.289Z,5.44
2023-04-03T18:21:41.232Z,5.41
2023-04-03T18:24:43.749Z,5.21
2023-04-03T18:27:47.157Z,5.02
2023-04-03T18:30:56.708Z,5.04
2023-04-03T18:33:59.078Z,4.92
2023-04-03T18:37:00.581Z,4.77
2023-04-03T18:40:02.463Z,4.58
2023-04-03T18:43:11.702Z,4.38
2023-04-03T18:46:19.849Z,4.34
2023-04-03T18:49:21.454Z,4.33
2023-04-03T18:52:25.233Z,4.18
2023-04-03T18:55:31.057Z,4.04
2023-04-03T18:58:32.661Z,3.94
2023-04-03T19:01:34.977Z,4.00
2023-04-03T19:04:36.935Z,3.87
2023-04-03T19:07:40.628Z,3.76
2023-04-03T19:10:44.516Z,3.72
2023-04-03T19:14:10.745Z,3.56
2023-04-03T19:17:15.976Z,3.47
2023-04-03T19:20:18.195Z,3.43
2023-04-03T19:23:24.143Z,3.31
2023-04-03T19:26:32.132Z,3.22
2023-04-03T19:29:50.188Z,3.16
2023-04-03T19:32:58.224Z,3.00
2023-04-03T19:36:06.737Z,2.98
2023-04-03T19:39:10.269Z,2.94
2023-04-03T19:42:14.646Z,3.03
2023-04-03T19:45:18.142Z,3.03
2023-04-03T19:48:30.541Z,2.99
2023-04-03T19:51:32.123Z,2.85
2023-04-03T19:54:33.662Z,2.77
2023-04-03T19:57:37.403Z,2.86
2023-04-03T20:00:41.299Z,2.82
2023-04-03T20:03:43.290Z,2.83
2023-04-03T20:06:47.636Z,2.80
2023-04-03T20:09:49.191Z,2.83
2023-04-03T20:12:53.709Z,2.67
2023-04-03T20:15:56.238Z,2.78
2023-04-03T20:18:58.016Z,2.65
2023-04-03T20:22:07.995Z,2.75
2023-04-03T20:25:15.239Z,2.60
2023-04-03T20:28:19.870Z,2.51
2023-04-03T20:31:24.038Z,2.26
2023-04-03T20:34:25.676Z,2.17
2023-04-03T20:37:27.720Z,2.17
2023-04-03T20:40:29.271Z,2.17
2023-04-03T20:43:31.554Z,2.03
2023-04-03T20:46:49.067Z,2.14
2023-04-03T20:53:17.998Z,1.94
2023-04-03T20:56:26.901Z,1.84
2023-04-03T20:59:31.066Z,1.79
2023-04-03T21:02:35.948Z,1.73
2023-04-03T21:05:45.311Z,1.71
2023-04-03T21:09:27.416Z,1.68
2023-04-03T21:13:14.048Z,1.62
2023-04-03T21:16:15.486Z,1.53
2023-04-03T21:19:21.653Z,1.46
2023-04-03T21:22:23.275Z,1.47
2023-04-03T21:25:24.934Z,1.37
2023-04-03T21:28:33.248Z,1.35
2023-04-03T21:31:58.121Z,1.37
2023-04-03T21:35:00.881Z,1.14
2023-04-03T21:38:02.581Z,1.06
2023-04-03T21:41:10.424Z,1.21
2023-04-03T21:44:12.449Z,1.15
2023-04-03T21:47:19.057Z,0.96
2023-04-03T21:50:21.432Z,1.04
2023-04-03T21:53:27.356Z,0.98
2023-04-03T21:56:34.207Z,0.87
2023-04-03T21:59:36.840Z,1.06
2023-04-03T22:02:41.814Z,1.02
2023-04-03T22:05:46.698Z,0.92
2023-04-03T22:08:48.434Z,0.90
2023-04-03T22:11:50.173Z,0.86
2023-04-03T22:14:51.839Z,0.88
2023-04-03T22:17:53.549Z,0.93
2023-04-03T22:20:55.705Z,0.82
2023-04-03T22:24:00.833Z,0.78
2023-04-03T22:27:02.585Z,0.79
2023-04-03T22:30:04.491Z,0.76
2023-04-03T22:33:06.127Z,0.54
2023-04-03T22:36:09.678Z,0.67
2023-04-03T22:42:34.628Z,0.68
2023-04-03T22:45:36.858Z,0.54
2023-04-03T22:48:42.471Z,0.45
2023-04-03T22:51:44.181Z,0.22
2023-04-03T22:54:48.564Z,0.07
2023-04-03T22:57:50.088Z,0.13
2023-04-03T23:00:55.918Z,0.18
2023-04-03T23:04:01.626Z,0.23
2023-04-03T23:07:03.272Z,0.16
2023-04-03T23:10:09.113Z,0.13
2023-04-03T23:13:13.857Z,0.07
2023-04-03T23:16:15.587Z,0.10
2023-04-03T23:19:17.826Z,0.09
2023-04-03T23:22:19.765Z,0.14
2023-04-03T23:25:26.387Z,0.29
2023-04-03T23:28:28.956Z,0.31
2023-04-03T23:31:31.110Z,0.28
2023-04-03T23:34:35.020Z,0.44
2023-04-03T23:37:39.323Z,0.51
2023-04-03T23:40:45.227Z,0.54
2023-04-03T23:43:47.575Z,0.39
2023-04-03T23:46:51.300Z,0.51
2023-04-03T23:49:53.083Z,0.60
2023-04-03T23:52:54.822Z,0.40
2023-04-03T23:56:11.348Z,0.60
2023-04-03T23:59:14.659Z,0.33
